ADDS METAR Data INFO
IDs: Format: Raw Decoded Include TAF

Data at: 1133 UTC 29 May 2017

KCPR 291053Z 25008KT 10SM CLR 07/05 A3025 RMK AO2 SLP213 T00670050 $
KCPR 290953Z AUTO 29004KT 10SM CLR 05/04 A3025 RMK AO2 SLP213 T00500039 $
KCPR 290853Z AUTO 24007KT 10SM FEW070 07/06 A3025 RMK AO2 SLP212 T00670056 57007 $
KCPR 290753Z AUTO 24006KT 10SM CLR 07/06 A3026 RMK AO2 SLP218 T00720061 $
KCPR 290653Z AUTO 24008KT 10SM FEW080 07/07 A3027 RMK AO2 SLP214 T00720067 402060044 $
KCPR 290553Z AUTO 21008KT 10SM FEW065 BKN080 OVC100 08/08 A3028 RMK AO2 SLP217 60013 T00830078 10172 20078 50007 $
KCPR 290453Z AUTO 29006KT 10SM BKN095 08/07 A3028 RMK AO2 SLP222 T00780067 $
KCPR 290353Z AUTO 00000KT 10SM FEW060 BKN075 OVC100 09/08 A3027 RMK AO2 RAB41E50 SLP218 P0000 T00940083 $
KCPR 290253Z AUTO 12007KT 10SM BKN110 09/07 A3026 RMK AO2 RAE21 SLP217 P0003 60013 T00940072 50012 $
KCPR 290153Z 31015G29KT 4SM RA BR SCT042 SCT060 BKN070 09/07 A3031 RMK AO2 PK WND 33029/0150 LTG DSNT SE TSE06 SLP239 P0004 T00940072 $
KCPR 290110Z 03017G22KT 10SM -RA BKN055 OVC070 11/08 A3028 RMK AO2 LTG DSNT SE AND S TSE06 P0003 T01110078 $
KCPR 290100Z 01014KT 5SM -TSRA BR BKN055 OVC070 10/08 A3026 RMK AO2 LTG DSNT SE AND S P0002 T01000078 $
KCPR 290053Z 01014KT 2 1/2SM TSRA BKN050 BKN065 OVC080 10/07 A3026 RMK AO2 LTG DSNT S RAB44 TSB26 SLP224 P0006 T01000072 $
KCPR 290026Z 03018KT 10SM TS SCT060 OVC085 14/05 A3022 RMK AO2 LTG DSNT SW TSB26 T01390050 $
KCPR 282353Z VRB04KT 10SM SCT100 17/03 A3022 RMK AO2 LTG DSNT SW AND W SLP203 T01720033 10206 20150 56006 $
KCPR 282337Z 06005KT 10SM CLR 18/04 A3022 RMK AO2 LTG DSNT W T01780039 $
KCPR 282322Z 04008KT 10SM VCTS CLR 18/04 A3022 RMK AO2 LTG DSNT W T01780044 $
KCPR 282253Z 06011KT 10SM FEW041 BKN090 BKN110 17/05 A3022 RMK AO2 SLP207 T01670050 $
KCPR 282153Z 12007KT 10SM FEW120 18/04 A3023 RMK AO2 SLP205 T01780044 $
KCPR 282053Z 03012KT 10SM SCT110 18/06 A3024 RMK AO2 PK WND 04026/1959 WSHFT 1940 SLP209 T01780056 51004 $
KCPR 282000Z 03020G26KT 10SM SCT080 BKN110 16/07 A3023 RMK AO2 PK WND 04026/1959 WSHFT 1940 T01560067 $
KCPR 281953Z 03020G26KT 10SM SCT080 BKN100 16/06 A3023 RMK AO2 PK WND 02026/1949 WSHFT 1932 LTG DSNT E SLP209 T01610061 $
KCPR 281853Z 28018G23KT 10SM FEW080 BKN100 19/01 A3023 RMK AO2 SLP201 T01890011 $
KCPR 281753Z 30012G19KT 10SM BKN070 18/02 A3024 RMK AO2 SLP209 T01780017 10183 20056 58008 $
KCPR 281653Z 21007KT 10SM FEW080 17/04 A3026 RMK AO2 SLP215 T01670039 $
KCPR 281553Z 24008KT 10SM BKN095 15/04 A3027 RMK AO2 SLP220 T01500039 $
KCPR 281453Z 26004KT 10SM BKN095 13/04 A3027 RMK AO2 SLP222 T01280044 51007 $
KCPR 281353Z 25011KT 10SM FEW090 SCT110 12/03 A3026 RMK AO2 SLP213 T01170028 $
KCPR 281253Z 24010KT 10SM FEW110 09/02 A3025 RMK AO2 SLP212 T00940022 $
KCPR 281153Z 26009KT 10SM CLR 05/02 A3024 RMK AO2 SLP216 T00500022 10061 20044 53003 $
KCPR 281053Z AUTO 25006KT 10SM CLR 04/02 A3024 RMK AO2 SLP215 T00440017 $
KCPR 280953Z AUTO 27007KT 10SM OVC110 06/02 A3023 RMK AO2 SLP213 T00560022 $
KCPR 280853Z AUTO 27007KT 10SM BKN095 06/02 A3023 RMK AO2 SLP212 T00560022 53000 $
KCPR 280753Z AUTO 26007KT 10SM BKN100 06/03 A3023 RMK AO2 SLP210 T00610028 $
KCPR 280653Z AUTO 24007KT 10SM FEW100 05/03 A3023 RMK AO2 SLP218 T00500028 401720039 $
KCPR 280553Z AUTO 25006KT 10SM CLR 06/03 A3023 RMK AO2 SLP216 T00560033 10156 20050 51008 $
KCPR 280453Z AUTO 24007KT 10SM CLR 06/03 A3023 RMK AO2 SLP213 T00610033 $
KCPR 280353Z AUTO 24006KT 10SM CLR 07/04 A3022 RMK AO2 SLP211 T00720039 $
KCPR 280253Z AUTO 25003KT 10SM CLR 09/03 A3021 RMK AO2 SLP204 T00940033 53005 $
KCPR 280153Z 00000KT 10SM CLR 14/05 A3020 RMK AO2 SLP196 T01390050 $
KCPR 280053Z 33007KT 10SM CLR 15/02 A3019 RMK AO2 SLP194 T01500022 $
KCPR 272353Z 34008KT 10SM CLR 16/02 A3019 RMK AO2 SLP196 60000 T01560017 10172 20111 53006 $


Page loaded:  11:33 UTC  |   04:33 AM Pacific  |   05:33 AM Mountain  |   06:33 AM Central  |   07:33 AM Eastern

 

ADVISORIES

FORECASTS

FORECASTS

OBSERVATIONS

USER TOOLS

ABOUT US